Horicon, Wisconsin
Current Conditions -  °F | °C
As of 8:15 PM on Wednesday 17 Dec 2014 (Local Time) from KUNU Reporting Station
Clear Clear  
Wind Chill: 12°   Ceiling: Unl
Heat Index: 19°   Visibility: 10mi
Dew Point: 15°   Wind: 5mph
Humidity: 85%   Direction: 260°W
Pressure: 30.26"   Gusts: NA
Location:  43.45°N, 88.63°W
Report Text: KUNU 180215Z AUTO 26004KT 10SM CLR M07/M10 A3026 RMK AO2 T10751097
Loading
Personal Weather Stations






























Interactive Weather Map New forecast layout! Learn more

10-Day Weather Forecast

Advertisements
Track Severe Weather on mobile